createdAt,value
2022-12-14T00:01:32.388Z,-5.13
2022-12-14T00:06:33.548Z,-5.14
2022-12-14T00:11:34.536Z,-5.19
2022-12-14T00:16:35.868Z,-5.32
2022-12-14T00:21:36.633Z,-5.26
2022-12-14T00:26:37.372Z,-5.28
2022-12-14T00:31:38.250Z,-5.30
2022-12-14T00:36:39.116Z,-5.31
2022-12-14T00:41:40.146Z,-5.29
2022-12-14T00:46:40.942Z,-5.21
2022-12-14T00:51:41.988Z,-5.21
2022-12-14T00:56:42.718Z,-5.20
2022-12-14T01:01:44.017Z,-5.22
2022-12-14T01:06:50.837Z,-5.26
2022-12-14T01:11:52.423Z,-5.23
2022-12-14T01:16:53.174Z,-5.21
2022-12-14T01:21:54.328Z,-5.15
2022-12-14T01:26:55.147Z,-5.19
2022-12-14T01:31:55.882Z,-5.05
2022-12-14T01:36:56.656Z,-5.16
2022-12-14T01:41:58.641Z,-5.11
2022-12-14T01:47:10.580Z,-5.06
2022-12-14T01:55:52.914Z,-5.11
2022-12-14T02:00:57.768Z,-5.13
2022-12-14T02:06:04.022Z,-5.16
2022-12-14T02:11:05.028Z,-5.18
2022-12-14T02:16:08.734Z,-5.07
2022-12-14T02:21:24.412Z,-5.07
2022-12-14T02:28:03.155Z,-5.09
2022-12-14T02:33:38.206Z,-5.15
2022-12-14T02:38:59.222Z,-5.07
2022-12-14T02:47:14.430Z,-5.10
2022-12-14T02:52:38.012Z,-5.08
2022-12-14T02:58:00.995Z,-5.08
2022-12-14T03:03:04.874Z,-5.08
2022-12-14T03:08:15.809Z,-5.12
2022-12-14T03:13:34.862Z,-5.24
2022-12-14T03:18:44.130Z,-5.33
2022-12-14T03:23:48.275Z,-5.33
2022-12-14T03:29:05.605Z,-5.27
2022-12-14T03:34:13.394Z,-5.35
2022-12-14T03:39:22.570Z,-5.39
2022-12-14T03:45:57.458Z,-5.34
2022-12-14T03:51:57.653Z,-5.42
2022-12-14T03:57:10.812Z,-5.38
2022-12-14T04:02:20.488Z,-5.38
2022-12-14T04:09:02.481Z,-5.39
2022-12-14T04:15:10.834Z,-5.32
2022-12-14T04:20:41.467Z,-5.39
2022-12-14T04:26:04.222Z,-5.33
2022-12-14T04:31:10.853Z,-5.27
2022-12-14T04:36:18.114Z,-5.33
2022-12-14T04:41:23.225Z,-5.34
2022-12-14T04:46:27.335Z,-5.28
2022-12-14T04:51:35.631Z,-5.10
2022-12-14T04:58:11.459Z,-5.09
2022-12-14T05:03:31.636Z,-5.11
2022-12-14T05:08:59.150Z,-4.97
2022-12-14T05:14:00.332Z,-4.96
2022-12-14T05:19:01.110Z,-5.05
2022-12-14T05:24:03.484Z,-4.77
2022-12-14T05:29:04.750Z,-4.90
2022-12-14T05:34:05.792Z,-4.79
2022-12-14T05:39:06.552Z,-4.71
2022-12-14T05:44:07.357Z,-4.63
2022-12-14T05:49:08.402Z,-4.67
2022-12-14T05:54:09.372Z,-4.71
2022-12-14T05:59:14.750Z,-4.90
2022-12-14T06:04:16.679Z,-4.99
2022-12-14T06:09:18.665Z,-5.17
2022-12-14T06:14:20.015Z,-5.21
2022-12-14T06:19:20.788Z,-5.31
2022-12-14T06:24:21.530Z,-5.41
2022-12-14T06:29:22.335Z,-5.43
2022-12-14T06:34:28.342Z,-5.39
2022-12-14T06:39:29.523Z,-5.29
2022-12-14T06:44:30.295Z,-5.37
2022-12-14T06:49:31.183Z,-5.38
2022-12-14T06:54:31.897Z,-5.44
2022-12-14T06:59:32.888Z,-5.41
2022-12-14T07:04:33.721Z,-5.48
2022-12-14T07:09:34.509Z,-5.48
2022-12-14T07:14:35.346Z,-5.59
2022-12-14T07:19:36.122Z,-5.56
2022-12-14T07:24:36.942Z,-5.61
2022-12-14T07:29:37.763Z,-5.58
2022-12-14T07:34:39.814Z,-5.41
2022-12-14T07:39:40.627Z,-5.43
2022-12-14T07:44:41.357Z,-5.26
2022-12-14T07:49:42.145Z,-5.43
2022-12-14T07:54:42.883Z,-5.37
2022-12-14T07:59:44.386Z,-5.48
2022-12-14T08:04:45.248Z,-5.27
2022-12-14T08:09:47.042Z,-5.27
2022-12-14T08:14:48.047Z,-5.35
2022-12-14T08:19:49.944Z,-5.25
2022-12-14T08:24:50.976Z,-5.17
2022-12-14T08:29:51.743Z,-5.10
2022-12-14T08:34:52.663Z,-4.89
2022-12-14T08:39:53.509Z,-4.83
2022-12-14T08:44:54.955Z,-4.57
2022-12-14T08:49:55.927Z,-4.51
2022-12-14T08:54:56.942Z,-4.58
2022-12-14T09:00:02.296Z,-4.75
2022-12-14T09:05:04.957Z,-4.69
2022-12-14T09:10:07.334Z,-4.58
2022-12-14T09:15:08.725Z,-4.63
2022-12-14T09:20:12.066Z,-4.55
2022-12-14T09:25:12.967Z,-4.43
2022-12-14T09:30:13.802Z,-4.53
2022-12-14T09:35:15.522Z,-4.40
2022-12-14T09:40:16.639Z,-4.42
2022-12-14T09:45:31.537Z,-4.29
2022-12-14T09:50:33.288Z,-4.22
2022-12-14T09:55:41.855Z,-4.24
2022-12-14T10:00:53.406Z,-4.42
2022-12-14T10:09:23.065Z,-4.15
2022-12-14T10:21:18.460Z,-4.12
2022-12-14T10:26:22.908Z,-3.92
2022-12-14T10:31:51.587Z,-3.99
2022-12-14T10:37:00.793Z,-4.01
2022-12-14T10:42:34.779Z,-4.02
2022-12-14T10:47:40.900Z,-3.78
2022-12-14T10:52:44.265Z,-3.68
2022-12-14T10:57:45.038Z,-3.65
2022-12-14T11:02:49.984Z,-3.92
2022-12-14T11:07:51.488Z,-3.71
2022-12-14T11:13:05.980Z,-3.45
2022-12-14T11:19:14.979Z,-3.08
2022-12-14T11:24:27.169Z,-3.39
2022-12-14T11:29:37.028Z,-3.55
2022-12-14T11:34:41.499Z,-3.20
2022-12-14T11:39:42.386Z,-2.40
2022-12-14T11:44:45.437Z,-3.19
2022-12-14T11:49:50.288Z,-3.49
2022-12-14T11:55:12.928Z,-3.32
2022-12-14T12:00:30.131Z,-3.49
2022-12-14T12:05:33.586Z,-3.53
2022-12-14T12:10:44.686Z,-3.65
2022-12-14T12:16:26.692Z,-3.64
2022-12-14T12:21:29.999Z,-3.58
2022-12-14T12:26:36.162Z,-3.61
2022-12-14T12:31:47.700Z,-3.63
2022-12-14T12:37:17.406Z,-3.60
2022-12-14T12:42:39.887Z,-2.65
2022-12-14T12:47:55.220Z,-3.11
2022-12-14T12:53:09.966Z,-3.15
2022-12-14T12:58:22.287Z,-3.09
2022-12-14T13:03:31.463Z,-3.00
2022-12-14T13:08:38.410Z,-3.05
2022-12-14T13:13:44.840Z,-2.80
2022-12-14T13:19:02.053Z,-2.99
2022-12-14T13:24:17.193Z,-2.95
2022-12-14T13:29:43.137Z,-2.96
2022-12-14T13:35:16.613Z,-2.72
2022-12-14T13:40:27.302Z,-2.71
2022-12-14T13:45:41.913Z,-2.80
2022-12-14T13:50:59.311Z,-2.86
2022-12-14T13:56:03.781Z,-2.88
2022-12-14T14:02:39.623Z,-2.83
2022-12-14T14:12:46.374Z,-2.66
2022-12-14T14:17:48.818Z,-2.85
2022-12-14T14:23:41.944Z,-2.71
2022-12-14T14:28:43.198Z,-2.80
2022-12-14T14:33:55.023Z,-2.95
2022-12-14T14:38:58.513Z,-2.92
2022-12-14T14:44:04.020Z,-3.00
2022-12-14T14:49:17.835Z,-3.03
2022-12-14T15:00:02.250Z,-3.09
2022-12-14T15:05:33.120Z,-3.06
2022-12-14T15:10:43.416Z,-3.14
2022-12-14T15:15:46.484Z,-3.21
2022-12-14T15:21:31.796Z,-3.23
2022-12-14T15:26:33.491Z,-3.23
2022-12-14T15:31:39.671Z,-3.19
2022-12-14T15:36:41.501Z,-3.25
2022-12-14T15:41:42.267Z,-3.24
2022-12-14T15:46:52.831Z,-3.16
2022-12-14T15:51:55.268Z,-3.11
2022-12-14T15:56:57.996Z,-3.11
2022-12-14T16:02:14.294Z,-3.16
2022-12-14T16:07:20.369Z,-3.21
2022-12-14T16:12:44.469Z,-3.29
2022-12-14T16:17:46.408Z,-3.36
2022-12-14T16:23:22.051Z,-3.42
2022-12-14T16:28:32.210Z,-3.27
2022-12-14T16:33:38.789Z,-3.43
2022-12-14T16:39:04.107Z,-3.43
2022-12-14T16:44:08.815Z,-3.72
2022-12-14T16:49:18.976Z,-2.87
2022-12-14T16:54:26.735Z,-3.23
2022-12-14T16:59:43.197Z,-3.46
2022-12-14T17:04:44.098Z,-3.64
2022-12-14T17:09:44.884Z,-3.75
2022-12-14T17:14:49.744Z,-3.87
2022-12-14T17:19:51.250Z,-3.94
2022-12-14T17:24:52.187Z,-3.98
2022-12-14T17:29:54.442Z,-4.14
2022-12-14T17:34:55.386Z,-4.20
2022-12-14T17:39:56.295Z,-4.25
2022-12-14T17:44:59.371Z,-4.42
2022-12-14T17:50:01.051Z,-4.53
2022-12-14T17:55:01.934Z,-4.59
2022-12-14T18:00:22.445Z,-4.73
2022-12-14T18:05:23.273Z,-4.51
2022-12-14T18:10:24.795Z,-4.29
2022-12-14T18:15:28.715Z,-4.22
2022-12-14T18:20:29.646Z,-4.01
2022-12-14T18:25:38.643Z,-3.87
2022-12-14T18:30:45.976Z,-3.76
2022-12-14T18:35:52.572Z,-3.63
2022-12-14T18:40:54.208Z,-3.54
2022-12-14T18:45:56.445Z,-3.71
2022-12-14T18:50:57.728Z,-3.77
2022-12-14T18:56:00.340Z,-3.84
2022-12-14T19:01:01.227Z,-4.08
2022-12-14T19:11:41.951Z,-4.03
2022-12-14T19:16:43.109Z,-4.06
2022-12-14T19:21:43.842Z,-4.06
2022-12-14T19:26:44.980Z,-4.06
2022-12-14T19:31:54.047Z,-4.03
2022-12-14T19:36:55.293Z,-3.86
2022-12-14T19:41:56.110Z,-3.86
2022-12-14T19:46:57.137Z,-3.85
2022-12-14T19:51:57.905Z,-3.68
2022-12-14T19:56:58.948Z,-3.66
2022-12-14T20:02:01.493Z,-3.66
2022-12-14T20:07:02.433Z,-3.57
2022-12-14T20:12:03.988Z,-3.44
2022-12-14T20:17:10.242Z,-3.37
2022-12-14T20:22:13.982Z,-3.43
2022-12-14T20:27:15.501Z,-3.35
2022-12-14T20:32:16.319Z,-3.60
2022-12-14T20:37:17.075Z,-3.58
2022-12-14T20:42:17.842Z,-3.53
2022-12-14T20:47:18.594Z,-3.57
2022-12-14T20:52:19.665Z,-3.53
2022-12-14T20:57:20.593Z,-3.54
2022-12-14T21:02:23.994Z,-3.56
2022-12-14T21:07:26.400Z,-3.44
2022-12-14T21:12:27.506Z,-3.58
2022-12-14T21:17:29.958Z,-3.64
2022-12-14T21:22:31.214Z,-3.61
2022-12-14T21:27:33.692Z,-3.56
2022-12-14T21:32:35.911Z,-3.40
2022-12-14T21:37:38.008Z,-3.64
2022-12-14T21:42:38.724Z,-3.58
2022-12-14T21:47:39.474Z,-3.67
2022-12-14T21:52:40.219Z,-3.63
2022-12-14T21:57:59.849Z,-3.05
2022-12-14T22:03:01.136Z,-3.10
2022-12-14T22:08:02.020Z,-3.27
2022-12-14T22:13:02.800Z,-3.41
2022-12-14T22:18:03.771Z,-3.39
2022-12-14T22:23:04.503Z,-3.42
2022-12-14T22:28:05.376Z,-3.43
2022-12-14T22:33:07.108Z,-3.60
2022-12-14T22:38:07.935Z,-3.59
2022-12-14T22:43:08.666Z,-3.58
2022-12-14T22:48:09.464Z,-3.48
2022-12-14T22:53:12.233Z,-3.33
2022-12-14T22:58:16.754Z,-3.52
2022-12-14T23:03:17.671Z,-3.50
2022-12-14T23:08:19.103Z,-3.56
2022-12-14T23:13:38.527Z,-3.55
2022-12-14T23:18:58.070Z,-3.45
2022-12-14T23:24:17.519Z,-3.30
2022-12-14T23:29:36.974Z,-3.45
2022-12-14T23:34:56.544Z,-3.59
2022-12-14T23:40:16.147Z,-3.62
2022-12-14T23:45:35.692Z,-3.59
2022-12-14T23:50:55.052Z,-3.50
2022-12-14T23:56:14.505Z,-3.54
